DTTX/SFA METAR and TAF weather

Enter ICAO airport designator
Station Type Date Time Source
DTTX METAR 2022/06/27 09:00 UTC NOAA

DTTX 270900Z 09006KT CAVOK 35/18 Q1013


Station Type Date Time Source
DTTX Decoded METAR 2022/06/27 09:00 UTC NOAA

Sfax El-Maou, Tunisia (DTTX) 34-43N 010-41E 23M
Jun 27, 2022 - 05:00 AM EDT / 2022.06.27 0900 UTC
Wind: from the E (090 degrees) at 7 MPH (6 KT):0
Visibility: greater than 7 mile(s):0
Temperature: 95 F (35 C)
Heat index: 97.0 F (36.1 C):1
Dew Point: 64 F (18 C)
Relative Humidity: 36%
Pressure (altimeter): 29.91 in. Hg (1013 hPa)
ob: DTTX 270900Z 09006KT CAVOK 35/18 Q1013
cycle: 9

Station Type Date Time Source
DTTX TAF 2022/06/27 06:36 UTC NOAA

TAF DTTX 270500Z 2706/2806 VRB03KT CAVOK
BECMG 2709/2711 09010KT
BECMG 2801/2803 VRB03KT
BECMG 2804/2806 04010KT

Example: see airport list